sensor_id;sensor_type;location;lat;lon;timestamp;P1;durP1;ratioP1;P2;durP2;ratioP2
7247;SDS011;3665;51.034;13.642;2023-09-30T00:00:06;14.73;;;7.87;;
7247;SDS011;3665;51.034;13.642;2023-09-30T00:04:53;12.67;;;6.93;;
7247;SDS011;3665;51.034;13.642;2023-09-30T00:09:39;12.23;;;6.20;;
7247;SDS011;3665;51.034;13.642;2023-09-30T00:14:32;8.90;;;5.30;;
7247;SDS011;3665;51.034;13.642;2023-09-30T00:19:36;10.60;;;5.93;;
7247;SDS011;3665;51.034;13.642;2023-09-30T00:24:37;9.57;;;5.20;;
7247;SDS011;3665;51.034;13.642;2023-09-30T00:29:42;9.73;;;5.03;;
7247;SDS011;3665;51.034;13.642;2023-09-30T00:34:47;4.40;;;3.03;;
7247;SDS011;3665;51.034;13.642;2023-09-30T00:39:33;3.80;;;2.70;;
7247;SDS011;3665;51.034;13.642;2023-09-30T00:44:39;3.37;;;2.00;;
7247;SDS011;3665;51.034;13.642;2023-09-30T00:49:23;4.13;;;1.93;;
7247;SDS011;3665;51.034;13.642;2023-09-30T00:54:12;2.23;;;2.00;;
7247;SDS011;3665;51.034;13.642;2023-09-30T00:58:59;3.40;;;1.80;;
7247;SDS011;3665;51.034;13.642;2023-09-30T01:03:47;4.60;;;1.70;;
7247;SDS011;3665;51.034;13.642;2023-09-30T01:08:38;3.13;;;1.83;;
7247;SDS011;3665;51.034;13.642;2023-09-30T01:13:23;2.47;;;1.60;;
7247;SDS011;3665;51.034;13.642;2023-09-30T01:18:15;1.40;;;1.30;;
7247;SDS011;3665;51.034;13.642;2023-09-30T01:23:03;1.43;;;1.20;;
7247;SDS011;3665;51.034;13.642;2023-09-30T01:27:47;2.13;;;0.90;;
7247;SDS011;3665;51.034;13.642;2023-09-30T01:32:36;1.30;;;0.83;;
7247;SDS011;3665;51.034;13.642;2023-09-30T01:37:26;2.27;;;1.13;;
7247;SDS011;3665;51.034;13.642;2023-09-30T01:42:11;2.13;;;1.40;;
7247;SDS011;3665;51.034;13.642;2023-09-30T01:46:57;3.13;;;1.33;;
7247;SDS011;3665;51.034;13.642;2023-09-30T01:51:44;2.67;;;1.60;;
7247;SDS011;3665;51.034;13.642;2023-09-30T01:56:36;2.93;;;1.23;;
7247;SDS011;3665;51.034;13.642;2023-09-30T02:01:23;3.13;;;1.80;;
7247;SDS011;3665;51.034;13.642;2023-09-30T02:06:13;3.90;;;2.03;;
7247;SDS011;3665;51.034;13.642;2023-09-30T02:10:58;6.10;;;2.37;;
7247;SDS011;3665;51.034;13.642;2023-09-30T02:15:42;7.27;;;2.20;;
7247;SDS011;3665;51.034;13.642;2023-09-30T02:30:43;4.83;;;1.77;;
7247;SDS011;3665;51.034;13.642;2023-09-30T02:35:32;6.37;;;2.00;;
7247;SDS011;3665;51.034;13.642;2023-09-30T02:40:22;5.70;;;2.10;;
7247;SDS011;3665;51.034;13.642;2023-09-30T02:45:09;5.17;;;1.83;;
7247;SDS011;3665;51.034;13.642;2023-09-30T02:49:57;5.63;;;2.00;;
7247;SDS011;3665;51.034;13.642;2023-09-30T02:54:44;4.80;;;2.13;;
7247;SDS011;3665;51.034;13.642;2023-09-30T02:59:31;6.00;;;2.17;;
7247;SDS011;3665;51.034;13.642;2023-09-30T03:04:20;4.73;;;2.23;;
7247;SDS011;3665;51.034;13.642;2023-09-30T03:09:08;5.63;;;1.80;;
7247;SDS011;3665;51.034;13.642;2023-09-30T03:13:56;5.87;;;2.00;;
7247;SDS011;3665;51.034;13.642;2023-09-30T03:18:43;3.70;;;2.20;;
7247;SDS011;3665;51.034;13.642;2023-09-30T03:23:32;5.37;;;2.43;;
7247;SDS011;3665;51.034;13.642;2023-09-30T03:28:21;8.23;;;2.67;;
7247;SDS011;3665;51.034;13.642;2023-09-30T03:33:07;9.30;;;2.33;;
7247;SDS011;3665;51.034;13.642;2023-09-30T03:37:56;6.30;;;2.50;;
7247;SDS011;3665;51.034;13.642;2023-09-30T03:42:45;7.17;;;2.30;;
7247;SDS011;3665;51.034;13.642;2023-09-30T03:47:31;4.90;;;2.03;;
7247;SDS011;3665;51.034;13.642;2023-09-30T03:52:19;8.67;;;2.87;;
7247;SDS011;3665;51.034;13.642;2023-09-30T03:57:07;6.27;;;2.60;;
7247;SDS011;3665;51.034;13.642;2023-09-30T04:01:55;8.80;;;2.60;;
7247;SDS011;3665;51.034;13.642;2023-09-30T04:06:46;8.90;;;2.60;;
7247;SDS011;3665;51.034;13.642;2023-09-30T04:11:32;7.80;;;2.97;;
7247;SDS011;3665;51.034;13.642;2023-09-30T04:16:21;7.77;;;2.30;;
7247;SDS011;3665;51.034;13.642;2023-09-30T04:21:25;6.50;;;2.70;;
7247;SDS011;3665;51.034;13.642;2023-09-30T04:26:13;8.90;;;3.30;;
7247;SDS011;3665;51.034;13.642;2023-09-30T04:30:57;9.00;;;2.80;;
7247;SDS011;3665;51.034;13.642;2023-09-30T04:35:41;7.70;;;2.53;;
7247;SDS011;3665;51.034;13.642;2023-09-30T04:40:30;8.87;;;2.93;;
7247;SDS011;3665;51.034;13.642;2023-09-30T04:45:27;10.40;;;3.13;;
7247;SDS011;3665;51.034;13.642;2023-09-30T04:50:13;12.37;;;3.23;;
7247;SDS011;3665;51.034;13.642;2023-09-30T04:54:59;11.20;;;3.03;;
7247;SDS011;3665;51.034;13.642;2023-09-30T04:59:47;9.73;;;2.83;;
7247;SDS011;3665;51.034;13.642;2023-09-30T05:04:35;8.93;;;3.23;;
7247;SDS011;3665;51.034;13.642;2023-09-30T05:09:25;9.93;;;2.73;;
7247;SDS011;3665;51.034;13.642;2023-09-30T05:14:12;6.67;;;2.77;;
7247;SDS011;3665;51.034;13.642;2023-09-30T05:24:05;10.83;;;3.33;;
7247;SDS011;3665;51.034;13.642;2023-09-30T05:28:52;8.33;;;3.23;;
7247;SDS011;3665;51.034;13.642;2023-09-30T05:33:42;7.87;;;3.20;;
7247;SDS011;3665;51.034;13.642;2023-09-30T05:38:30;8.97;;;2.73;;
7247;SDS011;3665;51.034;13.642;2023-09-30T05:43:16;7.10;;;2.87;;
7247;SDS011;3665;51.034;13.642;2023-09-30T05:48:04;10.00;;;2.90;;
7247;SDS011;3665;51.034;13.642;2023-09-30T05:52:54;10.27;;;3.53;;
7247;SDS011;3665;51.034;13.642;2023-09-30T05:58:13;7.93;;;3.03;;
7247;SDS011;3665;51.034;13.642;2023-09-30T06:03:02;5.90;;;3.17;;
7247;SDS011;3665;51.034;13.642;2023-09-30T06:07:48;10.57;;;3.30;;
7247;SDS011;3665;51.034;13.642;2023-09-30T06:12:38;7.23;;;2.87;;
7247;SDS011;3665;51.034;13.642;2023-09-30T06:17:24;10.80;;;3.00;;
7247;SDS011;3665;51.034;13.642;2023-09-30T06:22:11;10.40;;;3.97;;
7247;SDS011;3665;51.034;13.642;2023-09-30T06:26:59;7.87;;;2.80;;
7247;SDS011;3665;51.034;13.642;2023-09-30T06:31:52;9.33;;;3.57;;
7247;SDS011;3665;51.034;13.642;2023-09-30T06:36:38;8.17;;;3.37;;
7247;SDS011;3665;51.034;13.642;2023-09-30T06:41:23;7.13;;;3.20;;
7247;SDS011;3665;51.034;13.642;2023-09-30T06:46:07;8.80;;;3.73;;
7247;SDS011;3665;51.034;13.642;2023-09-30T06:50:55;8.83;;;3.67;;
7247;SDS011;3665;51.034;13.642;2023-09-30T06:55:47;8.37;;;3.50;;
7247;SDS011;3665;51.034;13.642;2023-09-30T07:00:35;6.13;;;2.83;;
7247;SDS011;3665;51.034;13.642;2023-09-30T07:05:24;9.10;;;3.33;;
7247;SDS011;3665;51.034;13.642;2023-09-30T07:10:13;8.70;;;3.17;;
7247;SDS011;3665;51.034;13.642;2023-09-30T07:20:05;9.63;;;4.53;;
7247;SDS011;3665;51.034;13.642;2023-09-30T07:24:51;10.03;;;3.70;;
7247;SDS011;3665;51.034;13.642;2023-09-30T07:29:42;8.40;;;3.37;;
7247;SDS011;3665;51.034;13.642;2023-09-30T07:34:31;13.57;;;3.87;;
7247;SDS011;3665;51.034;13.642;2023-09-30T07:39:17;10.67;;;3.13;;
7247;SDS011;3665;51.034;13.642;2023-09-30T07:44:03;7.70;;;3.00;;
7247;SDS011;3665;51.034;13.642;2023-09-30T07:59:44;14.57;;;3.40;;
7247;SDS011;3665;51.034;13.642;2023-09-30T08:04:35;12.03;;;3.03;;
7247;SDS011;3665;51.034;13.642;2023-09-30T08:20:45;8.10;;;3.20;;
7247;SDS011;3665;51.034;13.642;2023-09-30T08:25:41;6.87;;;2.77;;
7247;SDS011;3665;51.034;13.642;2023-09-30T08:30:28;13.13;;;3.43;;
7247;SDS011;3665;51.034;13.642;2023-09-30T08:35:21;9.43;;;2.90;;
7247;SDS011;3665;51.034;13.642;2023-09-30T08:40:07;9.57;;;3.63;;
7247;SDS011;3665;51.034;13.642;2023-09-30T08:45:39;8.63;;;3.20;;
7247;SDS011;3665;51.034;13.642;2023-09-30T09:01:41;8.80;;;2.97;;
7247;SDS011;3665;51.034;13.642;2023-09-30T09:11:42;8.77;;;3.00;;
7247;SDS011;3665;51.034;13.642;2023-09-30T09:16:52;7.27;;;2.70;;
7247;SDS011;3665;51.034;13.642;2023-09-30T09:21:39;5.67;;;2.47;;
7247;SDS011;3665;51.034;13.642;2023-09-30T09:26:39;8.17;;;3.07;;
7247;SDS011;3665;51.034;13.642;2023-09-30T09:31:41;10.17;;;3.07;;
7247;SDS011;3665;51.034;13.642;2023-09-30T09:36:40;9.53;;;2.53;;
7247;SDS011;3665;51.034;13.642;2023-09-30T09:41:48;6.67;;;2.70;;
7247;SDS011;3665;51.034;13.642;2023-09-30T09:46:49;9.00;;;2.60;;
7247;SDS011;3665;51.034;13.642;2023-09-30T09:52:20;6.10;;;2.30;;
7247;SDS011;3665;51.034;13.642;2023-09-30T09:57:09;10.30;;;3.00;;
7247;SDS011;3665;51.034;13.642;2023-09-30T10:01:58;8.80;;;2.53;;
7247;SDS011;3665;51.034;13.642;2023-09-30T10:06:43;7.90;;;2.83;;
7247;SDS011;3665;51.034;13.642;2023-09-30T10:11:34;7.43;;;3.40;;
7247;SDS011;3665;51.034;13.642;2023-09-30T10:43:35;9.50;;;3.27;;
7247;SDS011;3665;51.034;13.642;2023-09-30T10:53:46;7.20;;;2.87;;
7247;SDS011;3665;51.034;13.642;2023-09-30T10:58:59;7.27;;;2.50;;
7247;SDS011;3665;51.034;13.642;2023-09-30T11:03:50;4.97;;;2.77;;
7247;SDS011;3665;51.034;13.642;2023-09-30T11:08:51;8.60;;;2.37;;
7247;SDS011;3665;51.034;13.642;2023-09-30T11:13:41;6.57;;;2.23;;
7247;SDS011;3665;51.034;13.642;2023-09-30T11:18:29;5.70;;;2.00;;
7247;SDS011;3665;51.034;13.642;2023-09-30T11:40:13;7.67;;;1.90;;
7247;SDS011;3665;51.034;13.642;2023-09-30T11:45:20;5.53;;;1.83;;
7247;SDS011;3665;51.034;13.642;2023-09-30T11:50:13;4.87;;;2.03;;
7247;SDS011;3665;51.034;13.642;2023-09-30T11:54:59;4.50;;;2.53;;
7247;SDS011;3665;51.034;13.642;2023-09-30T11:59:49;5.43;;;2.03;;
7247;SDS011;3665;51.034;13.642;2023-09-30T12:04:36;6.10;;;2.07;;
7247;SDS011;3665;51.034;13.642;2023-09-30T12:10:04;4.60;;;2.33;;
7247;SDS011;3665;51.034;13.642;2023-09-30T12:15:00;6.10;;;1.97;;
7247;SDS011;3665;51.034;13.642;2023-09-30T12:25:07;7.90;;;2.33;;
7247;SDS011;3665;51.034;13.642;2023-09-30T12:29:55;5.53;;;2.40;;
7247;SDS011;3665;51.034;13.642;2023-09-30T12:34:47;7.07;;;2.80;;
7247;SDS011;3665;51.034;13.642;2023-09-30T12:39:48;4.80;;;1.87;;
7247;SDS011;3665;51.034;13.642;2023-09-30T12:44:52;6.50;;;2.23;;
7247;SDS011;3665;51.034;13.642;2023-09-30T13:00:25;4.67;;;2.13;;
7247;SDS011;3665;51.034;13.642;2023-09-30T13:05:27;7.83;;;2.47;;
7247;SDS011;3665;51.034;13.642;2023-09-30T13:10:14;4.57;;;1.63;;
7247;SDS011;3665;51.034;13.642;2023-09-30T13:15:15;5.67;;;1.90;;
7247;SDS011;3665;51.034;13.642;2023-09-30T13:20:05;5.63;;;2.27;;
7247;SDS011;3665;51.034;13.642;2023-09-30T13:24:53;6.17;;;2.03;;
7247;SDS011;3665;51.034;13.642;2023-09-30T13:29:36;5.40;;;2.17;;
7247;SDS011;3665;51.034;13.642;2023-09-30T13:34:27;4.87;;;2.40;;
7247;SDS011;3665;51.034;13.642;2023-09-30T13:39:17;5.93;;;1.73;;
7247;SDS011;3665;51.034;13.642;2023-09-30T13:44:20;7.67;;;1.77;;
7247;SDS011;3665;51.034;13.642;2023-09-30T13:49:08;6.23;;;2.07;;
7247;SDS011;3665;51.034;13.642;2023-09-30T13:53:55;5.73;;;1.90;;
7247;SDS011;3665;51.034;13.642;2023-09-30T13:58:45;5.87;;;1.90;;
7247;SDS011;3665;51.034;13.642;2023-09-30T14:03:33;3.30;;;2.03;;
7247;SDS011;3665;51.034;13.642;2023-09-30T14:08:20;4.23;;;2.00;;
7247;SDS011;3665;51.034;13.642;2023-09-30T14:13:09;5.57;;;2.13;;
7247;SDS011;3665;51.034;13.642;2023-09-30T14:17:56;5.33;;;1.67;;
7247;SDS011;3665;51.034;13.642;2023-09-30T14:22:48;5.03;;;1.90;;
7247;SDS011;3665;51.034;13.642;2023-09-30T14:27:33;5.73;;;2.30;;
7247;SDS011;3665;51.034;13.642;2023-09-30T14:32:20;9.57;;;2.33;;
7247;SDS011;3665;51.034;13.642;2023-09-30T14:37:24;7.03;;;2.07;;
7247;SDS011;3665;51.034;13.642;2023-09-30T14:42:12;5.57;;;1.60;;
7247;SDS011;3665;51.034;13.642;2023-09-30T14:52:21;3.63;;;1.90;;
7247;SDS011;3665;51.034;13.642;2023-09-30T14:57:08;7.17;;;1.97;;
7247;SDS011;3665;51.034;13.642;2023-09-30T15:01:55;6.20;;;2.03;;
7247;SDS011;3665;51.034;13.642;2023-09-30T15:06:45;10.07;;;2.13;;
7247;SDS011;3665;51.034;13.642;2023-09-30T15:11:47;7.80;;;1.80;;
7247;SDS011;3665;51.034;13.642;2023-09-30T15:22:11;4.43;;;1.70;;
7247;SDS011;3665;51.034;13.642;2023-09-30T15:26:59;7.33;;;1.87;;
7247;SDS011;3665;51.034;13.642;2023-09-30T15:31:53;4.47;;;1.73;;
7247;SDS011;3665;51.034;13.642;2023-09-30T15:36:41;5.50;;;1.93;;
7247;SDS011;3665;51.034;13.642;2023-09-30T15:52:23;3.10;;;1.40;;
7247;SDS011;3665;51.034;13.642;2023-09-30T16:18:50;5.73;;;2.00;;
7247;SDS011;3665;51.034;13.642;2023-09-30T16:30:43;6.47;;;2.07;;
7247;SDS011;3665;51.034;13.642;2023-09-30T16:40:35;4.10;;;1.90;;
7247;SDS011;3665;51.034;13.642;2023-09-30T16:45:28;8.10;;;2.10;;
7247;SDS011;3665;51.034;13.642;2023-09-30T17:22:49;8.73;;;2.93;;
7247;SDS011;3665;51.034;13.642;2023-09-30T17:27:49;5.73;;;2.73;;
7247;SDS011;3665;51.034;13.642;2023-09-30T17:33:09;4.50;;;2.40;;
7247;SDS011;3665;51.034;13.642;2023-09-30T17:37:57;7.10;;;2.57;;
7247;SDS011;3665;51.034;13.642;2023-09-30T17:42:46;3.97;;;2.43;;
7247;SDS011;3665;51.034;13.642;2023-09-30T17:47:32;4.70;;;2.03;;
7247;SDS011;3665;51.034;13.642;2023-09-30T17:52:25;4.70;;;1.83;;
7247;SDS011;3665;51.034;13.642;2023-09-30T17:57:27;6.23;;;2.63;;
7247;SDS011;3665;51.034;13.642;2023-09-30T18:02:27;11.50;;;3.17;;
7247;SDS011;3665;51.034;13.642;2023-09-30T18:07:15;5.90;;;2.33;;
7247;SDS011;3665;51.034;13.642;2023-09-30T18:12:26;8.27;;;3.07;;
7247;SDS011;3665;51.034;13.642;2023-09-30T18:17:26;7.10;;;2.80;;
7247;SDS011;3665;51.034;13.642;2023-09-30T18:23:00;8.20;;;3.63;;
7247;SDS011;3665;51.034;13.642;2023-09-30T18:33:25;9.30;;;4.37;;
7247;SDS011;3665;51.034;13.642;2023-09-30T18:38:11;6.20;;;3.63;;
7247;SDS011;3665;51.034;13.642;2023-09-30T18:42:59;5.20;;;3.73;;
7247;SDS011;3665;51.034;13.642;2023-09-30T18:47:52;5.60;;;3.33;;
7247;SDS011;3665;51.034;13.642;2023-09-30T18:52:37;7.07;;;4.57;;
7247;SDS011;3665;51.034;13.642;2023-09-30T18:58:13;10.60;;;4.57;;
7247;SDS011;3665;51.034;13.642;2023-09-30T19:08:01;13.37;;;4.37;;
7247;SDS011;3665;51.034;13.642;2023-09-30T19:12:53;7.17;;;2.87;;
7247;SDS011;3665;51.034;13.642;2023-09-30T19:17:38;5.27;;;3.20;;
7247;SDS011;3665;51.034;13.642;2023-09-30T19:22:34;9.30;;;3.77;;
7247;SDS011;3665;51.034;13.642;2023-09-30T19:27:18;6.07;;;3.47;;
7247;SDS011;3665;51.034;13.642;2023-09-30T19:32:03;5.27;;;3.20;;
7247;SDS011;3665;51.034;13.642;2023-09-30T19:36:47;8.17;;;3.90;;
7247;SDS011;3665;51.034;13.642;2023-09-30T19:41:40;7.13;;;3.10;;
7247;SDS011;3665;51.034;13.642;2023-09-30T19:46:29;5.17;;;3.10;;
7247;SDS011;3665;51.034;13.642;2023-09-30T19:51:21;7.30;;;3.20;;
7247;SDS011;3665;51.034;13.642;2023-09-30T19:56:05;7.53;;;3.80;;
7247;SDS011;3665;51.034;13.642;2023-09-30T20:00:52;9.53;;;5.53;;
7247;SDS011;3665;51.034;13.642;2023-09-30T20:05:36;8.30;;;4.97;;
7247;SDS011;3665;51.034;13.642;2023-09-30T20:10:22;12.43;;;4.50;;
7247;SDS011;3665;51.034;13.642;2023-09-30T20:15:15;9.60;;;4.20;;
7247;SDS011;3665;51.034;13.642;2023-09-30T20:20:13;8.77;;;4.10;;
7247;SDS011;3665;51.034;13.642;2023-09-30T20:25:04;7.03;;;3.43;;
7247;SDS011;3665;51.034;13.642;2023-09-30T20:29:54;5.60;;;3.27;;
7247;SDS011;3665;51.034;13.642;2023-09-30T20:34:41;6.10;;;2.70;;
7247;SDS011;3665;51.034;13.642;2023-09-30T20:39:26;5.63;;;3.37;;
7247;SDS011;3665;51.034;13.642;2023-09-30T20:44:20;6.57;;;3.07;;
7247;SDS011;3665;51.034;13.642;2023-09-30T20:49:05;9.30;;;3.57;;
7247;SDS011;3665;51.034;13.642;2023-09-30T20:53:51;6.93;;;3.50;;
7247;SDS011;3665;51.034;13.642;2023-09-30T20:58:44;8.40;;;4.07;;
7247;SDS011;3665;51.034;13.642;2023-09-30T21:03:31;7.67;;;3.93;;
7247;SDS011;3665;51.034;13.642;2023-09-30T21:08:22;8.13;;;4.70;;
7247;SDS011;3665;51.034;13.642;2023-09-30T21:13:07;7.23;;;4.67;;
7247;SDS011;3665;51.034;13.642;2023-09-30T21:17:57;8.27;;;5.17;;
7247;SDS011;3665;51.034;13.642;2023-09-30T21:22:41;9.27;;;3.87;;
7247;SDS011;3665;51.034;13.642;2023-09-30T21:27:34;4.30;;;3.33;;
7247;SDS011;3665;51.034;13.642;2023-09-30T21:32:21;10.77;;;3.47;;
7247;SDS011;3665;51.034;13.642;2023-09-30T21:37:10;9.13;;;3.80;;
7247;SDS011;3665;51.034;13.642;2023-09-30T21:41:57;6.17;;;3.80;;
7247;SDS011;3665;51.034;13.642;2023-09-30T21:46:44;10.03;;;3.50;;
7247;SDS011;3665;51.034;13.642;2023-09-30T21:51:31;5.07;;;3.20;;
7247;SDS011;3665;51.034;13.642;2023-09-30T21:56:20;7.73;;;3.63;;
7247;SDS011;3665;51.034;13.642;2023-09-30T22:01:05;7.10;;;3.60;;
7247;SDS011;3665;51.034;13.642;2023-09-30T22:06:00;5.93;;;3.27;;
7247;SDS011;3665;51.034;13.642;2023-09-30T22:10:49;7.87;;;3.20;;
7247;SDS011;3665;51.034;13.642;2023-09-30T22:15:36;5.60;;;3.10;;
7247;SDS011;3665;51.034;13.642;2023-09-30T22:20:29;6.17;;;2.87;;
7247;SDS011;3665;51.034;13.642;2023-09-30T22:25:14;6.43;;;3.10;;
7247;SDS011;3665;51.034;13.642;2023-09-30T22:30:00;5.37;;;2.63;;
7247;SDS011;3665;51.034;13.642;2023-09-30T22:34:49;6.03;;;2.87;;
7247;SDS011;3665;51.034;13.642;2023-09-30T22:39:39;7.07;;;2.87;;
7247;SDS011;3665;51.034;13.642;2023-09-30T22:44:24;6.67;;;3.20;;
7247;SDS011;3665;51.034;13.642;2023-09-30T22:49:12;7.27;;;3.03;;
7247;SDS011;3665;51.034;13.642;2023-09-30T22:59:40;6.33;;;2.67;;
7247;SDS011;3665;51.034;13.642;2023-09-30T23:04:24;3.50;;;2.53;;
7247;SDS011;3665;51.034;13.642;2023-09-30T23:09:09;6.90;;;2.70;;
7247;SDS011;3665;51.034;13.642;2023-09-30T23:14:04;5.90;;;2.67;;
7247;SDS011;3665;51.034;13.642;2023-09-30T23:18:53;5.17;;;2.50;;
7247;SDS011;3665;51.034;13.642;2023-09-30T23:23:39;5.73;;;2.60;;
7247;SDS011;3665;51.034;13.642;2023-09-30T23:28:24;6.37;;;2.80;;
7247;SDS011;3665;51.034;13.642;2023-09-30T23:38:38;6.20;;;3.00;;
7247;SDS011;3665;51.034;13.642;2023-09-30T23:43:24;4.97;;;3.10;;
7247;SDS011;3665;51.034;13.642;2023-09-30T23:48:11;5.87;;;2.67;;
7247;SDS011;3665;51.034;13.642;2023-09-30T23:52:55;5.17;;;2.90;;
7247;SDS011;3665;51.034;13.642;2023-09-30T23:57:47;4.70;;;3.10;;
